Time,TemperatureF,DewpointF,PressureIn,WindDirection,WindDirectionDegrees,WindSpeedMPH,WindSpeedGustMPH,Humidity,HourlyPrecipIn,Conditions,Clouds,dailyrainin,SolarRadiationWatts/m^2,SoftwareType,DateUTC
2013-04-10 00:00:00,52.3,50.7,30.15,ENE,77,3.0,5.0,94,0.00,,,0.20,0.0,meteohub,2013-04-10 10:00:00,
2013-04-10 00:05:00,52.5,50.5,30.15,East,97,3.0,6.0,93,0.00,,,0.20,0.0,meteohub,2013-04-10 10:05:00,
2013-04-10 00:10:00,52.2,50.2,30.15,East,87,3.0,7.0,93,0.00,,,0.20,0.0,meteohub,2013-04-10 10:10:00,
2013-04-10 00:15:00,52.0,50.0,30.15,East,89,3.0,7.0,93,0.00,,,0.20,0.0,meteohub,2013-04-10 10:15:00,
2013-04-10 00:20:00,51.6,49.6,30.15,ENE,74,4.0,7.0,93,0.00,,,0.20,0.0,meteohub,2013-04-10 10:20:00,
2013-04-10 00:25:00,51.6,49.6,30.15,ESE,110,3.0,6.0,93,0.00,,,0.20,0.0,meteohub,2013-04-10 10:25:00,
2013-04-10 00:30:00,51.4,49.5,30.14,East,86,3.0,6.0,93,0.00,,,0.20,0.0,meteohub,2013-04-10 10:30:00,
2013-04-10 00:35:00,51.3,49.1,30.14,East,79,3.0,6.0,92,0.00,,,0.20,0.0,meteohub,2013-04-10 10:35:00,
2013-04-10 00:40:00,51.3,49.3,30.14,East,101,2.0,6.0,93,0.00,,,0.20,0.0,meteohub,2013-04-10 10:40:00,
2013-04-10 00:45:00,51.4,49.3,30.14,East,83,5.0,6.0,92,0.00,,,0.20,0.0,meteohub,2013-04-10 10:45:00,
2013-04-10 00:50:00,51.4,48.6,30.14,East,94,3.0,6.0,90,0.00,,,0.20,0.0,meteohub,2013-04-10 10:50:00,
2013-04-10 00:55:00,51.3,48.4,30.13,East,89,3.0,6.0,90,0.00,,,0.20,0.0,meteohub,2013-04-10 10:55:00,
2013-04-10 01:00:00,51.1,48.0,30.14,East,87,3.0,6.0,89,0.00,,,0.20,0.0,meteohub,2013-04-10 11:00:00,
2013-04-10 01:05:00,50.7,47.8,30.13,East,80,3.0,5.0,90,0.00,,,0.20,0.0,meteohub,2013-04-10 11:05:00,
2013-04-10 01:10:00,51.3,48.2,30.13,ENE,74,4.0,7.0,89,0.00,,,0.20,0.0,meteohub,2013-04-10 11:10:00,
2013-04-10 01:15:00,51.4,48.0,30.13,ENE,70,4.0,7.0,88,0.00,,,0.20,0.0,meteohub,2013-04-10 11:15:00,
2013-04-10 01:20:00,51.3,47.8,30.13,East,80,3.0,7.0,88,0.00,,,0.20,0.0,meteohub,2013-04-10 11:20:00,
2013-04-10 01:25:00,51.1,47.3,30.13,East,80,5.0,7.0,87,0.00,,,0.20,0.0,meteohub,2013-04-10 11:25:00,
2013-04-10 01:30:00,51.3,46.9,30.13,East,81,3.0,6.0,85,0.00,,,0.20,0.0,meteohub,2013-04-10 11:30:00,
2013-04-10 01:35:00,51.3,46.6,30.13,ENE,68,3.0,8.0,84,0.00,,,0.20,0.0,meteohub,2013-04-10 11:35:00,
2013-04-10 01:40:00,50.5,46.8,30.12,East,92,3.0,8.0,87,0.00,,,0.20,0.0,meteohub,2013-04-10 11:40:00,
2013-04-10 01:45:00,49.3,46.2,30.12,East,87,2.0,8.0,89,0.00,,,0.20,0.0,meteohub,2013-04-10 11:45:00,
2013-04-10 01:50:00,48.6,46.0,30.12,East,81,3.0,5.0,91,0.00,,,0.20,0.0,meteohub,2013-04-10 11:50:00,
2013-04-10 01:55:00,48.9,46.8,30.12,ENE,72,4.0,6.0,92,0.00,,,0.20,0.0,meteohub,2013-04-10 11:55:00,
2013-04-10 02:00:00,49.3,46.8,30.12,East,94,2.0,6.0,91,0.00,,,0.20,0.0,meteohub,2013-04-10 12:00:00,
2013-04-10 02:05:00,48.9,46.8,30.12,East,84,5.0,6.0,92,0.00,,,0.20,0.0,meteohub,2013-04-10 12:05:00,
2013-04-10 02:10:00,49.6,46.8,30.12,East,82,2.0,7.0,90,0.00,,,0.20,0.0,meteohub,2013-04-10 12:10:00,
2013-04-10 02:15:00,49.5,46.6,30.12,ENE,74,4.0,7.0,90,0.00,,,0.20,0.0,meteohub,2013-04-10 12:15:00,
2013-04-10 02:20:00,49.6,46.6,30.12,East,82,3.0,7.0,89,0.00,,,0.20,0.0,meteohub,2013-04-10 12:20:00,
2013-04-10 02:25:00,49.3,46.8,30.12,East,81,5.0,7.0,91,0.00,,,0.20,0.0,meteohub,2013-04-10 12:25:00,
2013-04-10 02:30:00,49.8,46.8,30.12,ENE,74,5.0,6.0,89,0.00,,,0.20,0.0,meteohub,2013-04-10 12:30:00,
2013-04-10 02:35:00,50.4,46.6,30.11,East,82,6.0,6.0,87,0.00,,,0.20,0.0,meteohub,2013-04-10 12:35:00,
2013-04-10 02:40:00,50.7,46.0,30.11,ENE,77,4.0,8.0,84,0.00,,,0.20,0.0,meteohub,2013-04-10 12:40:00,
2013-04-10 02:45:00,50.5,46.2,30.11,ENE,75,3.0,8.0,85,0.00,,,0.20,0.0,meteohub,2013-04-10 12:45:00,
2013-04-10 02:50:00,49.6,45.7,30.11,ENE,72,3.0,7.0,86,0.00,,,0.20,0.0,meteohub,2013-04-10 12:50:00,
2013-04-10 02:55:00,49.1,45.1,30.12,ENE,64,4.0,7.0,86,0.00,,,0.20,0.0,meteohub,2013-04-10 12:55:00,
2013-04-10 03:00:00,50.2,45.5,30.11,ENE,77,4.0,7.0,84,0.00,,,0.20,0.0,meteohub,2013-04-10 13:00:00,
2013-04-10 03:05:00,50.4,46.0,30.11,ENE,71,5.0,7.0,85,0.00,,,0.20,0.0,meteohub,2013-04-10 13:05:00,
2013-04-10 03:10:00,49.6,45.9,30.11,East,86,5.0,7.0,87,0.00,,,0.20,0.0,meteohub,2013-04-10 13:10:00,
2013-04-10 03:15:00,49.8,45.9,30.11,ENE,71,5.0,7.0,86,0.00,,,0.20,0.0,meteohub,2013-04-10 13:15:00,
2013-04-10 03:20:00,50.2,45.9,30.11,East,81,6.0,7.0,85,0.00,,,0.20,0.0,meteohub,2013-04-10 13:20:00,
2013-04-10 03:25:00,50.5,45.9,30.11,East,79,5.0,8.0,84,0.00,,,0.20,0.0,meteohub,2013-04-10 13:25:00,
2013-04-10 03:30:00,50.4,45.7,30.11,ENE,67,3.0,8.0,84,0.00,,,0.20,0.0,meteohub,2013-04-10 13:30:00,
2013-04-10 03:36:00,50.2,45.1,30.11,East,81,7.0,7.0,83,0.00,,,0.20,0.0,meteohub,2013-04-10 13:36:00,
2013-04-10 03:41:00,50.7,45.5,30.11,ENE,71,3.0,7.0,82,0.00,,,0.20,0.0,meteohub,2013-04-10 13:41:00,
2013-04-10 03:46:00,50.4,45.7,30.11,ENE,77,3.0,7.0,84,0.00,,,0.20,0.0,meteohub,2013-04-10 13:46:00,
2013-04-10 03:51:00,50.2,45.5,30.11,ENE,77,7.0,7.0,84,0.00,,,0.20,0.0,meteohub,2013-04-10 13:51:00,
2013-04-10 03:56:00,50.4,45.3,30.11,East,82,5.0,7.0,83,0.00,,,0.20,0.0,meteohub,2013-04-10 13:56:00,
2013-04-10 04:01:00,49.8,45.5,30.11,ESE,102,2.0,7.0,85,0.00,,,0.20,0.0,meteohub,2013-04-10 14:01:00,
2013-04-10 04:06:00,49.6,45.7,30.11,East,80,5.0,7.0,86,0.00,,,0.20,0.0,meteohub,2013-04-10 14:06:00,
2013-04-10 04:11:00,50.2,46.2,30.11,East,89,5.0,7.0,86,0.00,,,0.20,0.0,meteohub,2013-04-10 14:11:00,
2013-04-10 04:16:00,50.4,46.4,30.11,East,94,3.0,7.0,86,0.00,,,0.20,0.0,meteohub,2013-04-10 14:16:00,
2013-04-10 04:21:00,50.2,46.2,30.11,East,90,2.0,7.0,86,0.00,,,0.20,0.0,meteohub,2013-04-10 14:21:00,
2013-04-10 04:26:00,50.2,46.2,30.11,East,83,5.0,7.0,86,0.00,,,0.20,0.0,meteohub,2013-04-10 14:26:00,
2013-04-10 04:31:00,50.7,46.4,30.11,East,83,3.0,7.0,85,0.00,,,0.20,0.0,meteohub,2013-04-10 14:31:00,
2013-04-10 04:36:00,50.5,46.2,30.11,East,89,6.0,8.0,85,0.00,,,0.20,0.0,meteohub,2013-04-10 14:36:00,
2013-04-10 04:42:00,50.5,45.9,30.11,ENE,76,4.0,8.0,84,0.00,,,0.20,0.0,meteohub,2013-04-10 14:42:00,
2013-04-10 04:47:00,50.7,45.7,30.11,ENE,64,3.0,7.0,83,0.00,,,0.20,0.0,meteohub,2013-04-10 14:47:00,
2013-04-10 04:54:00,50.2,45.5,30.11,ENE,64,3.0,7.0,84,0.00,,,0.20,0.0,meteohub,2013-04-10 14:54:00,
2013-04-10 04:59:00,50.2,45.5,30.12,ENE,77,5.0,7.0,84,0.00,,,0.20,0.0,meteohub,2013-04-10 14:59:00,
2013-04-10 05:04:00,50.7,45.7,30.12,ENE,71,3.0,8.0,83,0.00,,,0.20,0.0,meteohub,2013-04-10 15:04:00,
2013-04-10 05:09:00,51.1,45.9,30.12,ENE,77,3.0,8.0,82,0.00,,,0.20,0.0,meteohub,2013-04-10 15:09:00,
2013-04-10 05:14:00,51.3,46.0,30.12,ENE,76,5.0,8.0,82,0.00,,,0.20,0.0,meteohub,2013-04-10 15:14:00,
2013-04-10 05:19:00,50.7,45.7,30.12,East,87,3.0,8.0,83,0.00,,,0.20,0.0,meteohub,2013-04-10 15:19:00,
2013-04-10 05:24:00,49.8,45.5,30.12,East,92,2.0,8.0,85,0.00,,,0.20,0.0,meteohub,2013-04-10 15:24:00,
2013-04-10 05:29:00,49.3,45.3,30.12,ENE,74,3.0,6.0,86,0.00,,,0.20,0.0,meteohub,2013-04-10 15:29:00,
2013-04-10 05:34:00,50.5,45.5,30.12,East,91,6.0,7.0,83,0.00,,,0.20,0.0,meteohub,2013-04-10 15:34:00,
2013-04-10 05:39:00,50.7,45.7,30.12,ENE,76,3.0,7.0,83,0.00,,,0.20,0.0,meteohub,2013-04-10 15:39:00,
2013-04-10 05:44:00,50.0,45.3,30.12,East,79,5.0,7.0,84,0.00,,,0.20,0.0,meteohub,2013-04-10 15:44:00,
2013-04-10 05:49:00,49.6,45.7,30.12,East,86,3.0,7.0,86,0.00,,,0.20,0.0,meteohub,2013-04-10 15:49:00,
2013-04-10 05:54:00,49.5,45.7,30.13,East,94,3.0,7.0,87,0.00,,,0.20,0.0,meteohub,2013-04-10 15:54:00,
2013-04-10 05:59:00,49.6,45.9,30.12,East,81,5.0,7.0,87,0.00,,,0.20,0.0,meteohub,2013-04-10 15:59:00,
2013-04-10 06:04:00,49.6,45.3,30.13,East,96,3.0,6.0,85,0.00,,,0.20,0.0,meteohub,2013-04-10 16:04:00,
2013-04-10 06:09:00,49.8,45.1,30.13,East,84,3.0,8.0,84,0.00,,,0.20,0.0,meteohub,2013-04-10 16:09:00,
2013-04-10 06:15:00,50.0,45.7,30.13,ENE,72,4.0,8.0,85,0.00,,,0.20,5.0,meteohub,2013-04-10 16:15:00,
2013-04-10 06:20:00,50.5,45.9,30.13,East,91,5.0,8.0,84,0.00,,,0.20,7.0,meteohub,2013-04-10 16:20:00,
2013-04-10 06:25:00,50.4,46.0,30.13,ENE,78,4.0,8.0,85,0.00,,,0.20,9.0,meteohub,2013-04-10 16:25:00,
2013-04-10 06:30:00,50.0,45.7,30.12,East,91,2.0,8.0,85,0.00,,,0.20,11.0,meteohub,2013-04-10 16:30:00,
2013-04-10 06:35:00,50.0,46.0,30.13,ENE,76,4.0,8.0,86,0.00,,,0.20,12.0,meteohub,2013-04-10 16:35:00,
2013-04-10 06:40:00,50.4,45.7,30.13,ENE,75,7.0,7.0,84,0.00,,,0.20,14.0,meteohub,2013-04-10 16:40:00,
2013-04-10 06:45:00,50.5,45.9,30.13,East,86,5.0,7.0,84,0.00,,,0.20,16.0,meteohub,2013-04-10 16:45:00,
2013-04-10 06:50:00,50.7,46.0,30.13,East,80,3.0,7.0,84,0.00,,,0.20,18.0,meteohub,2013-04-10 16:50:00,
2013-04-10 06:55:00,50.2,46.2,30.13,East,81,3.0,7.0,86,0.00,,,0.20,19.0,meteohub,2013-04-10 16:55:00,
2013-04-10 07:00:00,50.2,46.4,30.13,ENE,71,4.0,7.0,87,0.00,,,0.20,19.0,meteohub,2013-04-10 17:00:00,
2013-04-10 07:05:00,50.0,46.2,30.13,East,88,3.0,7.0,87,0.00,,,0.20,21.0,meteohub,2013-04-10 17:05:00,
2013-04-10 07:10:00,50.5,46.6,30.13,NE,50,3.0,6.0,86,0.00,,,0.20,23.0,meteohub,2013-04-10 17:10:00,
2013-04-10 07:15:00,51.3,47.3,30.13,East,80,3.0,7.0,86,0.00,,,0.20,23.0,meteohub,2013-04-10 17:15:00,
2013-04-10 07:20:00,51.1,47.3,30.13,East,88,3.0,7.0,87,0.00,,,0.20,25.0,meteohub,2013-04-10 17:20:00,
2013-04-10 07:25:00,50.5,47.5,30.13,ESE,107,3.0,7.0,89,0.00,,,0.20,25.0,meteohub,2013-04-10 17:25:00,
2013-04-10 07:30:00,50.5,47.5,30.13,East,98,5.0,6.0,89,0.00,,,0.20,26.0,meteohub,2013-04-10 17:30:00,
2013-04-10 07:35:00,51.1,48.0,30.13,ENE,70,3.0,6.0,89,0.00,,,0.20,26.0,meteohub,2013-04-10 17:35:00,
2013-04-10 07:40:00,51.4,48.4,30.13,East,85,2.0,6.0,89,0.00,,,0.20,28.0,meteohub,2013-04-10 17:40:00,
2013-04-10 07:45:00,52.0,48.6,30.14,East,86,2.0,5.0,88,0.00,,,0.20,28.0,meteohub,2013-04-10 17:45:00,
2013-04-10 07:50:00,52.2,49.1,30.14,East,96,2.0,5.0,89,0.00,,,0.20,30.0,meteohub,2013-04-10 17:50:00,
2013-04-10 07:55:00,52.7,49.8,30.14,East,96,1.0,5.0,90,0.00,,,0.20,30.0,meteohub,2013-04-10 17:55:00,
2013-04-10 08:00:00,53.4,50.5,30.14,East,97,1.0,3.0,90,0.00,,,0.20,32.0,meteohub,2013-04-10 18:00:00,
2013-04-10 08:05:00,54.1,51.6,30.14,East,97,1.0,2.0,91,0.00,,,0.20,32.0,meteohub,2013-04-10 18:05:00,
2013-04-10 08:10:00,54.5,52.0,30.13,East,96,1.0,2.0,91,0.00,,,0.20,32.0,meteohub,2013-04-10 18:10:00,
2013-04-10 08:15:00,54.9,52.3,30.13,East,96,1.0,2.0,91,0.00,,,0.20,33.0,meteohub,2013-04-10 18:15:00,
2013-04-10 08:20:00,55.8,53.4,30.13,East,98,0.0,2.0,92,0.00,,,0.20,33.0,meteohub,2013-04-10 18:20:00,
2013-04-10 08:25:00,56.8,54.5,30.13,East,98,0.0,2.0,92,0.00,,,0.20,33.0,meteohub,2013-04-10 18:25:00,
2013-04-10 08:30:00,57.6,54.7,30.14,East,96,0.0,1.0,90,0.00,,,0.20,35.0,meteohub,2013-04-10 18:30:00,
2013-04-10 08:35:00,59.2,56.3,30.14,East,96,0.0,2.0,90,0.00,,,0.20,35.0,meteohub,2013-04-10 18:35:00,
2013-04-10 08:40:00,61.0,57.4,30.14,WNW,296,0.0,4.0,88,0.00,,,0.20,35.0,meteohub,2013-04-10 18:40:00,
2013-04-10 08:45:00,62.2,57.9,30.14,WNW,284,1.0,4.0,86,0.00,,,0.20,37.0,meteohub,2013-04-10 18:45:00,
2013-04-10 08:50:00,63.0,58.1,30.14,WSW,246,0.0,4.0,84,0.00,,,0.20,37.0,meteohub,2013-04-10 18:50:00,
2013-04-10 08:55:00,63.3,58.8,30.14,WSW,237,0.0,3.0,85,0.00,,,0.20,37.0,meteohub,2013-04-10 18:55:00,
2013-04-10 09:00:00,63.9,59.0,30.14,West,278,0.0,3.0,84,0.00,,,0.20,39.0,meteohub,2013-04-10 19:00:00,
2013-04-10 09:05:00,64.2,59.4,30.14,West,281,1.0,3.0,84,0.00,,,0.20,40.0,meteohub,2013-04-10 19:05:00,
2013-04-10 09:10:00,64.8,59.9,30.14,WSW,250,2.0,3.0,84,0.00,,,0.20,40.0,meteohub,2013-04-10 19:10:00,
2013-04-10 09:15:00,64.8,59.9,30.13,WSW,252,0.0,3.0,84,0.00,,,0.20,44.0,meteohub,2013-04-10 19:15:00,
2013-04-10 09:20:00,64.9,59.4,30.13,West,281,1.0,5.0,82,0.00,,,0.20,70.0,meteohub,2013-04-10 19:20:00,
2013-04-10 09:25:00,64.9,59.7,30.13,SW,234,0.0,5.0,83,0.00,,,0.20,93.0,meteohub,2013-04-10 19:25:00,
2013-04-10 09:30:00,65.1,59.9,30.13,WSW,245,0.0,5.0,83,0.00,,,0.20,100.0,meteohub,2013-04-10 19:30:00,
2013-04-10 09:35:00,65.5,60.3,30.13,WSW,256,0.0,4.0,83,0.00,,,0.20,156.0,meteohub,2013-04-10 19:35:00,
2013-04-10 09:40:00,65.7,60.4,30.13,SW,233,2.0,5.0,83,0.00,,,0.20,207.0,meteohub,2013-04-10 19:40:00,
2013-04-10 09:45:00,65.7,60.4,30.13,WSW,249,0.0,5.0,83,0.00,,,0.20,176.0,meteohub,2013-04-10 19:45:00,
2013-04-10 09:50:00,65.8,60.3,30.13,SW,224,0.0,5.0,82,0.00,,,0.20,148.0,meteohub,2013-04-10 19:50:00,
2013-04-10 09:55:00,65.8,59.9,30.13,West,262,0.0,4.0,81,0.00,,,0.20,149.0,meteohub,2013-04-10 19:55:00,
2013-04-10 10:00:00,65.8,60.3,30.13,West,259,2.0,4.0,82,0.00,,,0.20,232.0,meteohub,2013-04-10 20:00:00,
2013-04-10 10:05:00,65.5,60.3,30.13,WNW,289,0.0,5.0,83,0.00,,,0.20,274.0,meteohub,2013-04-10 20:05:00,
2013-04-10 10:10:00,65.5,60.4,30.13,South,184,0.0,5.0,84,0.00,,,0.20,424.0,meteohub,2013-04-10 20:10:00,
2013-04-10 10:15:00,65.5,61.2,30.13,SW,221,3.0,5.0,86,0.00,,,0.20,279.0,meteohub,2013-04-10 20:15:00,
2013-04-10 10:20:00,65.3,60.3,30.13,WNW,283,3.0,5.0,84,0.00,,,0.20,330.0,meteohub,2013-04-10 20:20:00,
2013-04-10 10:25:00,65.1,60.1,30.13,SW,234,0.0,5.0,84,0.00,,,0.20,362.0,meteohub,2013-04-10 20:25:00,
2013-04-10 10:30:00,65.1,60.1,30.13,SW,220,0.0,5.0,84,0.00,,,0.20,436.0,meteohub,2013-04-10 20:30:00,
2013-04-10 10:35:00,65.1,59.5,30.12,SW,216,0.0,5.0,82,0.00,,,0.20,404.0,meteohub,2013-04-10 20:35:00,
2013-04-10 10:40:00,65.1,59.5,30.13,SW,236,2.0,5.0,82,0.00,,,0.20,404.0,meteohub,2013-04-10 20:40:00,
2013-04-10 10:45:00,65.1,59.9,30.12,WSW,240,1.0,5.0,83,0.00,,,0.20,318.0,meteohub,2013-04-10 20:45:00,
2013-04-10 10:50:00,65.1,59.5,30.12,WSW,243,1.0,5.0,82,0.00,,,0.20,302.0,meteohub,2013-04-10 20:50:00,
2013-04-10 10:55:00,65.3,59.4,30.12,WNW,284,0.0,6.0,81,0.00,,,0.20,369.0,meteohub,2013-04-10 20:55:00,
2013-04-10 11:00:00,65.5,59.5,30.12,West,272,0.0,6.0,81,0.00,,,0.20,417.0,meteohub,2013-04-10 21:00:00,
2013-04-10 11:06:00,66.0,59.7,30.12,WSW,246,0.0,6.0,80,0.00,,,0.20,355.0,meteohub,2013-04-10 21:06:00,
2013-04-10 11:11:00,66.6,60.6,30.12,SW,236,1.0,4.0,81,0.00,,,0.20,306.0,meteohub,2013-04-10 21:11:00,
2013-04-10 11:16:00,66.6,61.0,30.12,WSW,252,2.0,5.0,82,0.00,,,0.20,311.0,meteohub,2013-04-10 21:16:00,
2013-04-10 11:21:00,66.6,61.2,30.12,SW,225,2.0,5.0,83,0.00,,,0.20,378.0,meteohub,2013-04-10 21:21:00,
2013-04-10 11:27:00,66.4,61.0,30.12,WSW,244,1.0,5.0,83,0.00,,,0.20,506.0,meteohub,2013-04-10 21:27:00,
2013-04-10 11:32:00,66.4,61.3,30.11,WSW,250,0.0,7.0,84,0.00,,,0.20,443.0,meteohub,2013-04-10 21:32:00,
2013-04-10 11:37:00,66.0,61.0,30.11,WNW,282,1.0,7.0,84,0.00,,,0.20,504.0,meteohub,2013-04-10 21:37:00,
2013-04-10 11:42:00,66.0,61.3,30.11,WSW,242,0.0,7.0,85,0.00,,,0.20,490.0,meteohub,2013-04-10 21:42:00,
2013-04-10 11:47:00,66.4,61.7,30.11,WSW,243,1.0,6.0,85,0.00,,,0.20,621.0,meteohub,2013-04-10 21:47:00,
2013-04-10 11:52:00,66.6,61.0,30.11,West,274,0.0,6.0,82,0.00,,,0.20,385.0,meteohub,2013-04-10 21:52:00,
2013-04-10 11:58:00,66.6,61.9,30.11,SW,220,2.0,7.0,85,0.00,,,0.20,366.0,meteohub,2013-04-10 21:58:00,
2013-04-10 12:03:00,66.2,61.5,30.10,WSW,240,2.0,7.0,85,0.00,,,0.20,657.0,meteohub,2013-04-10 22:03:00,
2013-04-10 12:08:00,66.6,61.9,30.10,WNW,283,2.0,7.0,85,0.00,,,0.20,631.0,meteohub,2013-04-10 22:08:00,
2013-04-10 12:13:00,66.7,62.1,30.10,SSW,209,3.0,5.0,85,0.00,,,0.20,410.0,meteohub,2013-04-10 22:13:00,
2013-04-10 12:18:00,66.9,62.6,30.10,WNW,294,3.0,6.0,86,0.00,,,0.20,406.0,meteohub,2013-04-10 22:18:00,
2013-04-10 12:23:00,67.3,62.2,30.09,WNW,299,2.0,6.0,84,0.00,,,0.20,290.0,meteohub,2013-04-10 22:23:00,
2013-04-10 12:28:00,66.7,61.7,30.09,WNW,298,1.0,7.0,84,0.00,,,0.20,360.0,meteohub,2013-04-10 22:28:00,
2013-04-10 12:33:00,66.7,61.3,30.09,West,277,0.0,7.0,83,0.00,,,0.20,225.0,meteohub,2013-04-10 22:33:00,
2013-04-10 12:38:00,66.7,61.7,30.09,West,277,0.0,7.0,84,0.00,,,0.20,181.0,meteohub,2013-04-10 22:38:00,
2013-04-10 12:43:00,66.7,61.3,30.09,WSW,240,1.0,5.0,83,0.00,,,0.20,165.0,meteohub,2013-04-10 22:43:00,
2013-04-10 12:48:00,66.4,61.3,30.09,WSW,254,0.0,4.0,84,0.00,,,0.20,179.0,meteohub,2013-04-10 22:48:00,
2013-04-10 12:53:00,66.4,61.3,30.09,West,263,2.0,3.0,84,0.00,,,0.20,193.0,meteohub,2013-04-10 22:53:00,
2013-04-10 12:58:00,66.0,61.0,30.09,SW,217,0.0,3.0,84,0.00,,,0.20,192.0,meteohub,2013-04-10 22:58:00,
2013-04-10 13:03:00,65.8,60.8,30.08,SSE,154,0.0,4.0,84,0.00,,,0.20,230.0,meteohub,2013-04-10 23:03:00,
2013-04-10 13:08:00,65.7,60.6,30.08,WSW,238,2.0,4.0,84,0.00,,,0.20,232.0,meteohub,2013-04-10 23:08:00,
2013-04-10 13:14:00,65.7,61.0,30.08,WSW,248,3.0,5.0,85,0.00,,,0.20,246.0,meteohub,2013-04-10 23:14:00,
2013-04-10 13:19:00,65.7,60.6,30.07,SW,228,2.0,5.0,84,0.00,,,0.20,394.0,meteohub,2013-04-10 23:19:00,
2013-04-10 13:24:00,65.8,60.8,30.07,WSW,240,1.0,5.0,84,0.00,,,0.20,374.0,meteohub,2013-04-10 23:24:00,
2013-04-10 13:29:00,66.0,61.3,30.07,West,264,1.0,4.0,85,0.00,,,0.20,301.0,meteohub,2013-04-10 23:29:00,
2013-04-10 13:35:00,66.4,61.0,30.07,NNW,331,2.0,4.0,83,0.00,,,0.20,469.0,meteohub,2013-04-10 23:35:00,
2013-04-10 13:40:00,66.6,60.6,30.07,West,276,0.0,4.0,81,0.00,,,0.20,288.0,meteohub,2013-04-10 23:40:00,
2013-04-10 13:45:00,66.6,61.0,30.06,SW,232,1.0,4.0,82,0.00,,,0.20,308.0,meteohub,2013-04-10 23:45:00,
2013-04-10 13:50:00,66.6,60.6,30.06,WSW,247,2.0,4.0,81,0.00,,,0.20,234.0,meteohub,2013-04-10 23:50:00,
2013-04-10 13:55:00,66.6,60.6,30.06,SW,235,0.0,4.0,81,0.00,,,0.20,223.0,meteohub,2013-04-10 23:55:00,
2013-04-10 14:00:00,66.6,60.6,30.06,WNW,294,0.0,4.0,81,0.00,,,0.20,204.0,meteohub,2013-04-11 00:00:00,
2013-04-10 14:05:00,66.4,60.4,30.06,West,267,0.0,4.0,81,0.00,,,0.00,239.0,meteohub,2013-04-11 00:05:00,
2013-04-10 14:10:00,66.4,60.4,30.06,West,265,1.0,4.0,81,0.00,,,0.00,258.0,meteohub,2013-04-11 00:10:00,
2013-04-10 14:15:00,66.6,61.0,30.06,SW,230,2.0,4.0,82,0.00,,,0.00,241.0,meteohub,2013-04-11 00:15:00,
2013-04-10 14:20:00,66.6,61.0,30.06,SW,235,0.0,6.0,82,0.00,,,0.00,279.0,meteohub,2013-04-11 00:20:00,
2013-04-10 14:25:00,66.6,61.0,30.06,SW,236,0.0,6.0,82,0.00,,,0.00,338.0,meteohub,2013-04-11 00:25:00,
2013-04-10 14:30:00,66.6,61.0,30.06,SSW,195,0.0,6.0,82,0.00,,,0.00,304.0,meteohub,2013-04-11 00:30:00,
2013-04-10 14:35:00,66.7,61.0,30.06,SW,224,0.0,4.0,82,0.00,,,0.00,459.0,meteohub,2013-04-11 00:35:00,
2013-04-10 14:40:00,66.9,61.0,30.06,WSW,252,4.0,5.0,81,0.00,,,0.00,376.0,meteohub,2013-04-11 00:40:00,
2013-04-10 14:45:00,66.9,61.0,30.06,West,269,1.0,5.0,81,0.00,,,0.00,406.0,meteohub,2013-04-11 00:45:00,
2013-04-10 14:50:00,67.1,61.3,30.06,SW,234,2.0,5.0,82,0.00,,,0.00,413.0,meteohub,2013-04-11 00:50:00,
2013-04-10 14:55:00,67.3,61.2,30.06,WSW,249,2.0,6.0,81,0.00,,,0.00,418.0,meteohub,2013-04-11 00:55:00,
2013-04-10 15:00:00,67.3,61.2,30.06,SW,221,1.0,7.0,81,0.00,,,0.00,359.0,meteohub,2013-04-11 01:00:00,
2013-04-10 15:05:00,67.1,61.3,30.05,SW,234,2.0,7.0,82,0.00,,,0.00,330.0,meteohub,2013-04-11 01:05:00,
2013-04-10 15:10:00,66.7,60.8,30.06,SW,230,1.0,7.0,81,0.00,,,0.00,281.0,meteohub,2013-04-11 01:10:00,
2013-04-10 15:15:00,66.6,61.0,30.06,SW,226,1.0,6.0,82,0.00,,,0.00,225.0,meteohub,2013-04-11 01:15:00,
2013-04-10 15:20:00,66.4,60.8,30.06,SSW,211,1.0,6.0,82,0.00,,,0.00,248.0,meteohub,2013-04-11 01:20:00,
2013-04-10 15:25:00,66.4,60.8,30.06,WSW,238,0.0,5.0,82,0.00,,,0.00,221.0,meteohub,2013-04-11 01:25:00,
2013-04-10 15:30:00,66.2,60.8,30.05,South,189,0.0,5.0,83,0.00,,,0.00,171.0,meteohub,2013-04-11 01:30:00,
2013-04-10 15:35:00,66.0,60.6,30.05,SW,225,1.0,5.0,83,0.00,,,0.00,190.0,meteohub,2013-04-11 01:35:00,
2013-04-10 15:40:00,66.0,61.0,30.05,WSW,241,0.0,5.0,84,0.00,,,0.00,167.0,meteohub,2013-04-11 01:40:00,
2013-04-10 15:45:00,65.8,61.2,30.05,WSW,245,4.0,5.0,85,0.00,,,0.00,127.0,meteohub,2013-04-11 01:45:00,
2013-04-10 15:50:00,65.7,61.0,30.05,WSW,238,1.0,5.0,85,0.00,,,0.00,114.0,meteohub,2013-04-11 01:50:00,
2013-04-10 15:55:00,65.5,61.2,30.04,SW,221,1.0,4.0,86,0.00,,,0.00,113.0,meteohub,2013-04-11 01:55:00,
2013-04-10 16:00:00,65.1,60.8,30.04,WSW,246,0.0,5.0,86,0.00,,,0.00,113.0,meteohub,2013-04-11 02:00:00,
2013-04-10 16:05:00,64.9,61.0,30.04,SW,231,3.0,5.0,87,0.00,,,0.00,130.0,meteohub,2013-04-11 02:05:00,
2013-04-10 16:10:00,64.9,61.0,30.04,SW,223,0.0,5.0,87,0.00,,,0.00,118.0,meteohub,2013-04-11 02:10:00,
2013-04-10 16:15:00,64.9,61.3,30.04,SW,228,1.0,4.0,88,0.00,,,0.00,88.0,meteohub,2013-04-11 02:15:00,
2013-04-10 16:20:00,64.9,61.0,30.04,SSW,203,0.0,4.0,87,0.00,,,0.00,74.0,meteohub,2013-04-11 02:20:00,
2013-04-10 16:25:00,64.6,61.0,30.04,SE,146,2.0,4.0,88,0.00,,,0.00,74.0,meteohub,2013-04-11 02:25:00,
2013-04-10 16:30:00,64.0,60.8,30.04,SE,144,0.0,4.0,89,0.00,,,0.00,86.0,meteohub,2013-04-11 02:30:00,
2013-04-10 16:35:00,64.0,61.0,30.04,SE,144,0.0,4.0,90,0.00,,,0.00,97.0,meteohub,2013-04-11 02:35:00,
2013-04-10 16:40:00,64.2,61.0,30.04,SSE,152,1.0,3.0,89,0.00,,,0.00,127.0,meteohub,2013-04-11 02:40:00,
2013-04-10 16:45:00,64.2,61.0,30.04,SSE,151,0.0,2.0,89,0.00,,,0.00,132.0,meteohub,2013-04-11 02:45:00,
2013-04-10 16:50:00,64.2,61.0,30.04,South,182,0.0,2.0,89,0.00,,,0.00,95.0,meteohub,2013-04-11 02:50:00,
2013-04-10 16:55:00,64.6,61.3,30.04,SW,226,0.0,2.0,89,0.00,,,0.00,107.0,meteohub,2013-04-11 02:55:00,
2013-04-10 17:00:00,64.6,61.3,30.04,South,179,0.0,5.0,89,0.00,,,0.00,123.0,meteohub,2013-04-11 03:00:00,
2013-04-10 17:06:00,64.8,61.5,30.04,SSW,200,0.0,5.0,89,0.00,,,0.00,188.0,meteohub,2013-04-11 03:06:00,
2013-04-10 17:11:00,64.9,61.3,30.04,SW,224,0.0,5.0,88,0.00,,,0.00,174.0,meteohub,2013-04-11 03:11:00,
2013-04-10 17:16:00,65.5,61.9,30.04,WSW,251,1.0,3.0,88,0.00,,,0.00,214.0,meteohub,2013-04-11 03:16:00,
2013-04-10 17:21:00,65.8,61.9,30.04,WSW,244,2.0,4.0,87,0.00,,,0.00,294.0,meteohub,2013-04-11 03:21:00,
2013-04-10 17:27:00,65.8,61.5,30.04,SSW,205,0.0,5.0,86,0.00,,,0.00,279.0,meteohub,2013-04-11 03:27:00,
2013-04-10 17:32:00,66.4,62.4,30.04,WSW,253,1.0,5.0,87,0.00,,,0.00,403.0,meteohub,2013-04-11 03:32:00,
2013-04-10 17:38:00,67.3,62.6,30.04,SW,215,0.0,5.0,85,0.00,,,0.00,325.0,meteohub,2013-04-11 03:38:00,
2013-04-10 17:43:00,67.5,62.4,30.05,NW,308,1.0,5.0,84,0.00,,,0.00,109.0,meteohub,2013-04-11 03:43:00,
2013-04-10 17:48:00,66.9,61.9,30.05,SW,219,0.0,5.0,84,0.00,,,0.00,221.0,meteohub,2013-04-11 03:48:00,
2013-04-10 17:53:00,66.9,62.2,30.05,West,273,0.0,5.0,85,0.00,,,0.00,163.0,meteohub,2013-04-11 03:53:00,
2013-04-10 17:58:00,66.6,61.5,30.05,SW,221,0.0,5.0,84,0.00,,,0.00,40.0,meteohub,2013-04-11 03:58:00,
2013-04-10 18:00:00,66.6,61.9,30.05,SW,222,0.0,5.0,85,0.00,,,0.00,40.0,meteohub,2013-04-11 04:00:00,
2013-04-10 18:05:00,65.8,61.5,30.05,WSW,255,1.0,4.0,86,0.00,,,0.00,39.0,meteohub,2013-04-11 04:05:00,
2013-04-10 18:10:00,65.5,61.5,30.05,WSW,255,0.0,4.0,87,0.00,,,0.00,32.0,meteohub,2013-04-11 04:10:00,
2013-04-10 18:15:00,65.1,61.2,30.05,WSW,255,1.0,4.0,87,0.00,,,0.00,26.0,meteohub,2013-04-11 04:15:00,
2013-04-10 18:20:00,64.9,61.0,30.05,WSW,254,0.0,3.0,87,0.00,,,0.00,26.0,meteohub,2013-04-11 04:20:00,
2013-04-10 18:25:00,64.8,60.8,30.05,South,170,1.0,2.0,87,0.00,,,0.00,39.0,meteohub,2013-04-11 04:25:00,
2013-04-10 18:30:00,64.6,61.0,30.06,South,169,0.0,3.0,88,0.00,,,0.00,25.0,meteohub,2013-04-11 04:30:00,
2013-04-10 19:06:00,63.5,60.4,30.06,West,266,0.0,2.0,90,0.00,,,0.00,0.0,meteohub,2013-04-11 05:06:00,
2013-04-10 19:11:00,63.3,60.6,30.06,West,266,0.0,2.0,91,0.00,,,0.00,0.0,meteohub,2013-04-11 05:11:00,
2013-04-10 19:16:00,63.1,60.8,30.06,West,267,0.0,2.0,92,0.00,,,0.00,0.0,meteohub,2013-04-11 05:16:00,
2013-04-10 19:22:00,63.0,60.6,30.07,West,268,0.0,2.0,92,0.00,,,0.00,0.0,meteohub,2013-04-11 05:22:00,
2013-04-10 19:27:00,62.2,58.3,30.07,North,5,0.0,2.0,87,0.00,,,0.00,0.0,meteohub,2013-04-11 05:27:00,
2013-04-10 19:32:00,61.9,57.0,30.07,East,89,1.0,2.0,84,0.00,,,0.00,0.0,meteohub,2013-04-11 05:32:00,
2013-04-10 19:37:00,61.2,55.2,30.07,ESE,113,1.0,3.0,81,0.00,,,0.00,0.0,meteohub,2013-04-11 05:37:00,
2013-04-10 19:44:00,60.3,53.8,30.07,East,96,1.0,6.0,79,0.00,,,0.00,0.0,meteohub,2013-04-11 05:44:00,
2013-04-10 19:49:00,59.7,53.6,30.07,ESE,121,3.0,6.0,80,0.00,,,0.00,0.0,meteohub,2013-04-11 05:49:00,
2013-04-10 19:54:00,59.0,52.5,30.08,East,82,1.0,6.0,79,0.00,,,0.00,0.0,meteohub,2013-04-11 05:54:00,
2013-04-10 19:59:00,58.3,49.3,30.08,ENE,69,5.0,5.0,72,0.00,,,0.00,0.0,meteohub,2013-04-11 05:59:00,
2013-04-10 20:04:00,57.9,50.7,30.08,East,98,2.0,6.0,77,0.00,,,0.00,0.0,meteohub,2013-04-11 06:04:00,
2013-04-10 20:09:00,57.6,51.1,30.09,ENE,63,4.0,7.0,79,0.00,,,0.00,0.0,meteohub,2013-04-11 06:09:00,
2013-04-10 20:14:00,57.0,51.3,30.09,East,84,2.0,7.0,81,0.00,,,0.00,0.0,meteohub,2013-04-11 06:14:00,
2013-04-10 20:19:00,56.5,51.1,30.09,ENE,76,3.0,6.0,82,0.00,,,0.00,0.0,meteohub,2013-04-11 06:19:00,
2013-04-10 20:24:00,56.1,51.1,30.10,East,100,2.0,6.0,83,0.00,,,0.00,0.0,meteohub,2013-04-11 06:24:00,
2013-04-10 20:29:00,55.8,50.4,30.10,ENE,71,3.0,6.0,82,0.00,,,0.00,0.0,meteohub,2013-04-11 06:29:00,
2013-04-10 20:34:00,55.0,48.9,30.11,East,80,2.0,6.0,80,0.00,,,0.00,0.0,meteohub,2013-04-11 06:34:00,
2013-04-10 20:39:00,54.3,48.2,30.11,East,88,1.0,5.0,80,0.00,,,0.00,0.0,meteohub,2013-04-11 06:39:00,
2013-04-10 20:44:00,53.4,48.4,30.11,East,97,1.0,5.0,83,0.00,,,0.00,0.0,meteohub,2013-04-11 06:44:00,
2013-04-10 20:49:00,53.1,47.7,30.11,East,90,2.0,5.0,82,0.00,,,0.00,0.0,meteohub,2013-04-11 06:49:00,
2013-04-10 20:54:00,53.1,47.3,30.12,ENE,69,2.0,5.0,81,0.00,,,0.00,0.0,meteohub,2013-04-11 06:54:00,
2013-04-10 20:59:00,52.9,47.3,30.12,East,92,1.0,5.0,81,0.00,,,0.00,0.0,meteohub,2013-04-11 06:59:00,
2013-04-10 21:04:00,52.5,47.1,30.12,East,86,2.0,5.0,82,0.00,,,0.00,0.0,meteohub,2013-04-11 07:04:00,
2013-04-10 21:09:00,52.2,46.8,30.13,East,88,0.0,5.0,82,0.00,,,0.00,0.0,meteohub,2013-04-11 07:09:00,
2013-04-10 21:14:00,51.8,46.8,30.13,East,91,1.0,5.0,83,0.00,,,0.00,0.0,meteohub,2013-04-11 07:14:00,
2013-04-10 21:19:00,51.4,46.8,30.13,East,82,2.0,5.0,84,0.00,,,0.00,0.0,meteohub,2013-04-11 07:19:00,
2013-04-10 21:24:00,52.2,46.6,30.13,East,88,2.0,5.0,81,0.00,,,0.00,0.0,meteohub,2013-04-11 07:24:00,
2013-04-10 21:29:00,52.0,46.4,30.13,East,88,2.0,6.0,81,0.00,,,0.00,0.0,meteohub,2013-04-11 07:29:00,
2013-04-10 21:34:00,51.3,46.0,30.13,ENE,76,2.0,6.0,82,0.00,,,0.00,0.0,meteohub,2013-04-11 07:34:00,
2013-04-10 21:39:00,51.8,45.5,30.13,ENE,74,5.0,6.0,79,0.00,,,0.00,0.0,meteohub,2013-04-11 07:39:00,
2013-04-10 21:44:00,52.3,46.0,30.13,East,96,3.0,6.0,79,0.00,,,0.00,0.0,meteohub,2013-04-11 07:44:00,
2013-04-10 21:49:00,52.2,46.2,30.13,East,80,2.0,7.0,80,0.00,,,0.00,0.0,meteohub,2013-04-11 07:49:00,
2013-04-10 21:55:00,51.4,45.1,30.13,ENE,67,3.0,7.0,79,0.00,,,0.00,0.0,meteohub,2013-04-11 07:55:00,
2013-04-10 21:59:00,51.1,45.9,30.13,East,94,2.0,7.0,82,0.00,,,0.00,0.0,meteohub,2013-04-11 07:59:00,
2013-04-10 22:05:00,51.1,45.9,30.13,ENE,70,4.0,6.0,82,0.00,,,0.00,0.0,meteohub,2013-04-11 08:05:00,
2013-04-10 22:10:00,51.3,46.2,30.14,East,86,2.0,6.0,83,0.00,,,0.00,0.0,meteohub,2013-04-11 08:10:00,
2013-04-10 22:15:00,51.3,46.2,30.14,East,86,3.0,6.0,83,0.00,,,0.00,0.0,meteohub,2013-04-11 08:15:00,
2013-04-10 22:20:00,52.0,48.6,30.14,East,101,2.0,5.0,88,0.00,,,0.00,0.0,meteohub,2013-04-11 08:20:00,
2013-04-10 22:25:00,52.3,48.0,30.14,East,86,2.0,6.0,85,0.00,,,0.00,0.0,meteohub,2013-04-11 08:25:00,
2013-04-10 22:30:00,52.3,48.0,30.14,East,95,2.0,6.0,85,0.00,,,0.00,0.0,meteohub,2013-04-11 08:30:00,
2013-04-10 22:35:00,52.3,48.2,30.14,East,84,1.0,6.0,86,0.00,,,0.00,0.0,meteohub,2013-04-11 08:35:00,
2013-04-10 22:40:00,52.5,48.4,30.14,East,88,1.0,5.0,86,0.00,,,0.00,0.0,meteohub,2013-04-11 08:40:00,
2013-04-10 22:45:00,53.1,49.6,30.14,East,92,1.0,5.0,88,0.00,,,0.00,0.0,meteohub,2013-04-11 08:45:00,
2013-04-10 22:50:00,53.6,49.5,30.14,ENE,78,2.0,5.0,86,0.00,,,0.00,0.0,meteohub,2013-04-11 08:50:00,
2013-04-10 22:55:00,53.8,50.0,30.14,ENE,67,3.0,5.0,87,0.00,,,0.00,0.0,meteohub,2013-04-11 08:55:00,
2013-04-10 23:00:00,54.0,50.5,30.14,East,81,2.0,5.0,88,0.00,,,0.00,0.0,meteohub,2013-04-11 09:00:00,
2013-04-10 23:05:00,53.8,49.6,30.13,East,82,2.0,5.0,86,0.00,,,0.00,0.0,meteohub,2013-04-11 09:05:00,
2013-04-10 23:10:00,53.2,46.2,30.14,East,88,2.0,5.0,77,0.00,,,0.00,0.0,meteohub,2013-04-11 09:10:00,
2013-04-10 23:15:00,53.1,46.8,30.13,East,81,2.0,6.0,79,0.00,,,0.00,0.0,meteohub,2013-04-11 09:15:00,
2013-04-10 23:20:00,51.8,46.2,30.13,East,88,1.0,6.0,81,0.00,,,0.00,0.0,meteohub,2013-04-11 09:20:00,
2013-04-10 23:25:00,50.9,45.7,30.13,East,92,2.0,5.0,82,0.00,,,0.00,0.0,meteohub,2013-04-11 09:25:00,
2013-04-10 23:30:00,50.4,45.3,30.13,East,82,2.0,5.0,83,0.00,,,0.00,0.0,meteohub,2013-04-11 09:30:00,
2013-04-10 23:35:00,49.8,44.6,30.13,East,92,2.0,5.0,82,0.00,,,0.00,0.0,meteohub,2013-04-11 09:35:00,
2013-04-10 23:40:00,49.6,44.8,30.13,ENE,78,2.0,5.0,83,0.00,,,0.00,0.0,meteohub,2013-04-11 09:40:00,
2013-04-10 23:45:00,49.6,45.0,30.13,ESE,113,2.0,5.0,84,0.00,,,0.00,0.0,meteohub,2013-04-11 09:45:00,
2013-04-10 23:50:00,49.5,44.6,30.13,ENE,66,2.0,5.0,83,0.00,,,0.00,0.0,meteohub,2013-04-11 09:50:00,
2013-04-10 23:55:00,49.5,44.8,30.13,East,79,3.0,5.0,84,0.00,,,0.00,0.0,meteohub,2013-04-11 09:55:00,